createdAt,value
2023-05-15T00:00:18.571Z,16.30
2023-05-15T00:02:45.646Z,16.27
2023-05-15T00:05:14.141Z,16.21
2023-05-15T00:07:41.670Z,16.19
2023-05-15T00:10:08.938Z,16.16
2023-05-15T00:12:36.836Z,16.08
2023-05-15T00:15:03.921Z,15.99
2023-05-15T00:17:30.825Z,15.93
2023-05-15T00:19:59.168Z,15.92
2023-05-15T00:22:26.418Z,15.94
2023-05-15T00:24:55.788Z,15.99
2023-05-15T00:27:22.606Z,16.03
2023-05-15T00:29:49.446Z,16.05
2023-05-15T00:32:16.436Z,16.07
2023-05-15T00:34:45.487Z,16.08
2023-05-15T00:37:12.338Z,16.09
2023-05-15T00:39:39.558Z,16.07
2023-05-15T00:42:07.857Z,16.07
2023-05-15T00:44:36.140Z,16.02
2023-05-15T00:47:04.673Z,16.00
2023-05-15T00:49:35.392Z,16.00
2023-05-15T00:52:03.782Z,15.97
2023-05-15T00:54:30.796Z,15.94
2023-05-15T00:56:59.446Z,15.92
2023-05-15T00:59:30.615Z,15.87
2023-05-15T01:01:57.692Z,15.81
2023-05-15T01:04:24.630Z,15.73
2023-05-15T01:06:55.167Z,15.66
2023-05-15T01:09:24.937Z,15.58
2023-05-15T01:11:53.834Z,15.49
2023-05-15T01:14:20.682Z,15.40
2023-05-15T01:16:47.617Z,15.37
2023-05-15T01:19:15.005Z,15.33
2023-05-15T01:22:15.931Z,15.31
2023-05-15T01:25:08.242Z,15.25
2023-05-15T01:27:34.976Z,15.20
2023-05-15T01:30:33.558Z,15.20
2023-05-15T01:33:08.870Z,15.17
2023-05-15T01:36:17.139Z,15.11
2023-05-15T01:38:52.207Z,15.07
2023-05-15T01:41:43.073Z,15.04
2023-05-15T01:44:28.737Z,15.03
2023-05-15T01:46:59.864Z,15.00
2023-05-15T01:49:28.798Z,15.03
2023-05-15T01:52:19.002Z,15.02
2023-05-15T01:54:47.683Z,15.04
2023-05-15T01:57:15.326Z,15.04
2023-05-15T01:59:43.122Z,15.03
2023-05-15T02:02:11.559Z,15.02
2023-05-15T02:04:42.740Z,15.00
2023-05-15T02:07:10.201Z,15.01
2023-05-15T02:09:37.445Z,15.01
2023-05-15T02:12:05.979Z,15.01
2023-05-15T02:14:33.264Z,15.00
2023-05-15T02:17:00.121Z,15.03
2023-05-15T02:19:27.420Z,15.06
2023-05-15T02:21:54.350Z,15.08
2023-05-15T02:24:21.163Z,15.13
2023-05-15T02:26:47.894Z,15.18
2023-05-15T02:29:24.124Z,15.23
2023-05-15T02:32:14.735Z,15.27
2023-05-15T02:35:09.436Z,15.28
2023-05-15T02:37:39.509Z,15.29
2023-05-15T02:40:11.894Z,15.33
2023-05-15T02:42:41.105Z,15.33
2023-05-15T02:45:09.423Z,15.33
2023-05-15T02:47:37.241Z,15.32
2023-05-15T02:50:05.053Z,15.28
2023-05-15T02:52:36.134Z,15.19
2023-05-15T02:55:02.909Z,15.08
2023-05-15T02:57:31.262Z,14.99
2023-05-15T02:59:58.151Z,14.94
2023-05-15T03:02:24.910Z,14.88
2023-05-15T03:04:51.908Z,14.86
2023-05-15T03:07:18.925Z,14.84
2023-05-15T03:09:45.801Z,14.82
2023-05-15T03:12:12.551Z,14.87
2023-05-15T03:14:39.368Z,14.87
2023-05-15T03:17:06.266Z,14.88
2023-05-15T03:19:33.237Z,14.87
2023-05-15T03:22:02.436Z,14.88
2023-05-15T03:24:29.355Z,14.86
2023-05-15T03:26:56.175Z,14.80
2023-05-15T03:29:22.966Z,14.81
2023-05-15T03:31:49.935Z,14.85
2023-05-15T03:34:16.718Z,14.87
2023-05-15T03:36:43.537Z,14.86
2023-05-15T03:39:11.198Z,14.85
2023-05-15T03:41:38.147Z,14.86
2023-05-15T03:44:05.194Z,14.82
2023-05-15T03:46:32.312Z,14.75
2023-05-15T03:49:01.754Z,14.71
2023-05-15T03:51:28.659Z,14.66
2023-05-15T03:53:55.785Z,14.64
2023-05-15T03:56:23.183Z,14.60
2023-05-15T03:58:49.926Z,14.58
2023-05-15T04:01:16.616Z,14.56
2023-05-15T04:03:43.529Z,14.55
2023-05-15T04:06:10.372Z,14.55
2023-05-15T04:08:37.840Z,14.52
2023-05-15T04:11:06.992Z,14.49
2023-05-15T04:13:33.826Z,14.48
2023-05-15T04:16:04.446Z,14.46
2023-05-15T04:18:31.367Z,14.44
2023-05-15T04:20:58.224Z,14.45
2023-05-15T04:23:25.774Z,14.45
2023-05-15T04:25:53.917Z,14.50
2023-05-15T04:28:21.778Z,14.52
2023-05-15T04:30:48.779Z,14.59
2023-05-15T04:33:15.723Z,14.64
2023-05-15T04:35:42.653Z,14.67
2023-05-15T04:38:09.564Z,14.67
2023-05-15T04:40:36.486Z,14.73
2023-05-15T04:43:04.066Z,14.85
2023-05-15T04:45:30.788Z,14.87
2023-05-15T04:47:57.786Z,14.84
2023-05-15T04:50:24.961Z,14.80
2023-05-15T04:52:52.081Z,14.76
2023-05-15T04:55:18.825Z,14.74
2023-05-15T04:57:48.707Z,14.75
2023-05-15T05:00:18.384Z,14.75
2023-05-15T05:02:45.382Z,14.71
2023-05-15T05:05:14.744Z,14.69
2023-05-15T05:07:42.459Z,14.74
2023-05-15T05:10:09.802Z,14.85
2023-05-15T05:12:36.733Z,14.97
2023-05-15T05:15:03.946Z,15.08
2023-05-15T05:17:31.918Z,15.11
2023-05-15T05:19:58.684Z,15.11
2023-05-15T05:22:25.629Z,15.16
2023-05-15T05:24:52.553Z,15.21
2023-05-15T05:27:19.629Z,15.26
2023-05-15T05:29:46.788Z,15.31
2023-05-15T05:32:13.670Z,15.37
2023-05-15T05:34:40.668Z,15.44
2023-05-15T05:37:07.436Z,15.55
2023-05-15T05:39:34.379Z,15.61
2023-05-15T05:42:03.085Z,15.67
2023-05-15T05:44:30.310Z,15.68
2023-05-15T05:46:57.696Z,15.65
2023-05-15T05:49:24.686Z,15.63
2023-05-15T05:51:54.500Z,15.68
2023-05-15T05:54:22.160Z,15.77
2023-05-15T05:56:49.051Z,15.91
2023-05-15T05:59:16.633Z,16.00
2023-05-15T06:01:43.504Z,16.10
2023-05-15T06:04:10.285Z,16.16
2023-05-15T06:06:37.494Z,16.22
2023-05-15T06:09:06.187Z,16.33
2023-05-15T06:11:33.234Z,16.55
2023-05-15T06:14:00.086Z,16.80
2023-05-15T06:16:26.839Z,17.33
2023-05-15T06:18:55.916Z,17.89
2023-05-15T06:21:22.815Z,18.09
2023-05-15T06:23:49.670Z,18.18
2023-05-15T06:26:16.646Z,18.34
2023-05-15T06:28:43.607Z,18.48
2023-05-15T06:31:11.899Z,18.63
2023-05-15T06:33:38.694Z,18.82
2023-05-15T06:36:05.865Z,18.83
2023-05-15T06:38:32.605Z,18.90
2023-05-15T06:40:59.331Z,18.92
2023-05-15T06:43:26.076Z,18.89
2023-05-15T06:45:54.104Z,18.79
2023-05-15T06:48:20.859Z,18.79
2023-05-15T06:50:47.661Z,18.95
2023-05-15T06:53:14.749Z,19.09
2023-05-15T06:55:41.558Z,19.16
2023-05-15T06:58:08.449Z,19.32
2023-05-15T07:00:35.336Z,19.44
2023-05-15T07:03:02.108Z,19.54
2023-05-15T07:05:29.128Z,19.53
2023-05-15T07:07:56.041Z,19.47
2023-05-15T07:10:23.047Z,19.42
2023-05-15T07:12:49.887Z,19.56
2023-05-15T07:15:18.127Z,19.85
2023-05-15T07:17:45.020Z,20.30
2023-05-15T07:20:12.158Z,20.61
2023-05-15T07:22:48.349Z,20.80
2023-05-15T07:25:22.327Z,21.00
2023-05-15T07:27:49.151Z,21.20
2023-05-15T07:30:16.257Z,21.43
2023-05-15T07:32:43.099Z,21.37
2023-05-15T07:35:11.661Z,21.32
2023-05-15T07:37:46.260Z,21.31
2023-05-15T07:40:13.437Z,21.17
2023-05-15T07:42:40.542Z,21.01
2023-05-15T07:45:08.092Z,20.98
2023-05-15T07:47:36.341Z,21.03
2023-05-15T07:50:03.437Z,21.18
2023-05-15T07:52:30.937Z,21.50
2023-05-15T07:54:58.262Z,22.02
2023-05-15T07:57:26.453Z,22.28
2023-05-15T07:59:56.732Z,22.48
2023-05-15T08:02:24.264Z,22.54
2023-05-15T08:04:51.256Z,22.53
2023-05-15T08:07:18.357Z,22.73
2023-05-15T08:09:45.138Z,22.97
2023-05-15T08:12:17.658Z,23.13
2023-05-15T08:14:44.431Z,23.65
2023-05-15T08:17:11.148Z,26.28
2023-05-15T08:19:37.848Z,30.47
2023-05-15T08:22:04.778Z,32.63
2023-05-15T08:24:31.573Z,32.49
2023-05-15T08:26:58.300Z,31.97
2023-05-15T08:29:25.027Z,30.82
2023-05-15T08:31:52.191Z,29.73
2023-05-15T08:34:19.294Z,29.08
2023-05-15T08:36:45.905Z,28.68
2023-05-15T08:39:13.511Z,28.50
2023-05-15T08:41:56.385Z,28.65
2023-05-15T08:44:24.038Z,28.70
2023-05-15T08:46:53.062Z,28.70
2023-05-15T08:49:49.346Z,28.57
2023-05-15T08:52:16.452Z,27.92
2023-05-15T08:54:43.992Z,27.11
2023-05-15T08:57:11.666Z,28.24
2023-05-15T08:59:38.444Z,31.88
2023-05-15T09:02:05.620Z,35.87
2023-05-15T09:04:32.518Z,38.82
2023-05-15T09:07:01.753Z,41.09
2023-05-15T09:09:30.778Z,42.65
2023-05-15T09:11:59.859Z,43.69
2023-05-15T09:14:26.665Z,43.98
2023-05-15T09:16:53.836Z,44.49
2023-05-15T09:19:24.023Z,44.73
2023-05-15T09:21:50.806Z,45.35
2023-05-15T09:24:24.706Z,45.94
2023-05-15T09:27:06.589Z,46.54
2023-05-15T09:29:38.911Z,47.40
2023-05-15T09:32:10.856Z,48.10
2023-05-15T09:34:40.201Z,48.70
2023-05-15T09:37:09.685Z,49.28
2023-05-15T09:39:43.940Z,49.89
2023-05-15T09:42:12.438Z,50.46
2023-05-15T09:44:43.566Z,50.54
2023-05-15T09:47:11.407Z,50.43
2023-05-15T09:49:39.060Z,50.86
2023-05-15T09:52:10.020Z,51.02
2023-05-15T09:54:37.672Z,51.20
2023-05-15T09:57:13.076Z,51.15
2023-05-15T09:59:47.602Z,51.43
2023-05-15T10:02:23.564Z,51.09
2023-05-15T10:04:57.509Z,51.26
2023-05-15T10:07:29.410Z,51.84
2023-05-15T10:09:56.166Z,52.35
2023-05-15T10:12:24.888Z,52.26
2023-05-15T10:14:53.906Z,52.33
2023-05-15T10:17:20.798Z,52.51
2023-05-15T10:19:58.248Z,53.02
2023-05-15T10:22:29.823Z,50.07
2023-05-15T10:25:28.968Z,43.98
2023-05-15T10:27:57.063Z,42.56
2023-05-15T10:30:26.077Z,45.72
2023-05-15T10:32:53.818Z,48.83
2023-05-15T10:35:23.372Z,51.18
2023-05-15T10:37:50.457Z,52.74
2023-05-15T10:40:17.901Z,53.04
2023-05-15T10:42:47.743Z,53.41
2023-05-15T10:45:14.772Z,51.94
2023-05-15T10:47:44.295Z,46.98
2023-05-15T10:50:13.500Z,43.34
2023-05-15T10:52:40.882Z,42.88
2023-05-15T10:55:09.682Z,43.88
2023-05-15T10:57:37.155Z,41.67
2023-05-15T11:00:05.730Z,42.43
2023-05-15T11:02:38.977Z,42.69
2023-05-15T11:05:07.133Z,46.17
2023-05-15T11:07:33.907Z,49.17
2023-05-15T11:10:00.826Z,49.16
2023-05-15T11:12:59.944Z,50.32
2023-05-15T11:15:26.997Z,51.70
2023-05-15T11:18:04.700Z,52.60
2023-05-15T11:20:39.628Z,51.72
2023-05-15T11:23:07.091Z,52.10
2023-05-15T11:25:36.251Z,52.92
2023-05-15T11:28:07.692Z,52.86
2023-05-15T11:30:41.238Z,53.10
2023-05-15T11:33:11.224Z,53.19
2023-05-15T11:35:47.057Z,52.88
2023-05-15T11:38:18.469Z,52.63
2023-05-15T11:40:52.544Z,51.83
2023-05-15T11:43:32.532Z,51.06
2023-05-15T11:46:13.819Z,50.07
2023-05-15T11:48:47.694Z,50.11
2023-05-15T11:51:22.162Z,49.90
2023-05-15T11:53:50.973Z,48.69
2023-05-15T11:56:23.007Z,44.63
2023-05-15T11:58:51.071Z,44.52
2023-05-15T12:01:17.905Z,46.23
2023-05-15T12:03:47.830Z,46.11
2023-05-15T12:06:14.838Z,45.23
2023-05-15T12:08:45.169Z,42.54
2023-05-15T12:11:13.527Z,39.80
2023-05-15T12:13:40.500Z,37.48
2023-05-15T12:16:07.507Z,35.96
2023-05-15T12:18:34.705Z,35.09
2023-05-15T12:21:01.662Z,34.60
2023-05-15T12:23:28.849Z,34.12
2023-05-15T12:26:00.444Z,33.71
2023-05-15T12:28:27.977Z,33.22
2023-05-15T12:30:55.554Z,32.61
2023-05-15T12:33:23.562Z,31.97
2023-05-15T12:35:54.214Z,31.17
2023-05-15T12:38:22.857Z,30.47
2023-05-15T12:40:53.583Z,29.92
2023-05-15T12:43:23.675Z,29.48
2023-05-15T12:45:52.918Z,29.22
2023-05-15T12:48:20.212Z,29.02
2023-05-15T12:50:47.768Z,28.91
2023-05-15T12:53:16.390Z,28.91
2023-05-15T12:55:47.189Z,28.86
2023-05-15T12:58:18.821Z,28.82
2023-05-15T13:00:50.831Z,28.68
2023-05-15T13:03:21.300Z,28.55
2023-05-15T13:05:48.243Z,28.63
2023-05-15T13:08:17.866Z,28.83
2023-05-15T13:10:45.698Z,28.90
2023-05-15T13:13:12.816Z,28.88
2023-05-15T13:15:45.929Z,28.85
2023-05-15T13:18:18.526Z,29.06
2023-05-15T13:20:47.398Z,29.06
2023-05-15T13:23:24.397Z,28.88
2023-05-15T13:25:51.147Z,28.73
2023-05-15T13:28:17.833Z,28.51
2023-05-15T13:30:44.705Z,28.34
2023-05-15T13:33:12.726Z,28.21
2023-05-15T13:35:43.154Z,28.17
2023-05-15T13:38:11.911Z,28.14
2023-05-15T13:40:39.518Z,28.24
2023-05-15T13:43:06.909Z,28.18
2023-05-15T13:45:34.160Z,28.20
2023-05-15T13:48:04.547Z,28.52
2023-05-15T13:50:31.385Z,28.90
2023-05-15T13:52:58.216Z,29.11
2023-05-15T13:55:26.528Z,28.88
2023-05-15T13:57:54.984Z,28.53
2023-05-15T14:00:21.915Z,28.33
2023-05-15T14:02:48.819Z,28.32
2023-05-15T14:05:16.762Z,28.43
2023-05-15T14:07:44.627Z,28.47
2023-05-15T14:10:11.578Z,28.16
2023-05-15T14:12:38.583Z,27.97
2023-05-15T14:15:06.022Z,27.90
2023-05-15T14:17:32.998Z,27.84
2023-05-15T14:19:59.802Z,27.79
2023-05-15T14:22:26.619Z,28.04
2023-05-15T14:24:56.407Z,28.33
2023-05-15T14:27:23.051Z,28.20
2023-05-15T14:29:49.867Z,27.92
2023-05-15T14:32:17.353Z,27.74
2023-05-15T14:34:44.696Z,27.70
2023-05-15T14:37:12.667Z,27.60
2023-05-15T14:39:39.771Z,27.57
2023-05-15T14:42:07.218Z,27.55
2023-05-15T14:44:35.739Z,27.51
2023-05-15T14:47:06.645Z,27.54
2023-05-15T14:49:34.272Z,27.44
2023-05-15T14:52:01.169Z,27.36
2023-05-15T14:54:28.396Z,27.56
2023-05-15T14:56:57.445Z,27.52
2023-05-15T14:59:28.425Z,27.49
2023-05-15T15:01:55.346Z,27.37
2023-05-15T15:04:22.264Z,27.09
2023-05-15T15:06:49.470Z,26.85
2023-05-15T15:09:17.009Z,26.74
2023-05-15T15:11:45.584Z,26.82
2023-05-15T15:14:12.932Z,26.67
2023-05-15T15:16:39.801Z,26.48
2023-05-15T15:19:06.599Z,26.01
2023-05-15T15:21:34.621Z,25.65
2023-05-15T15:24:01.376Z,25.38
2023-05-15T15:26:28.184Z,25.20
2023-05-15T15:29:00.656Z,25.14
2023-05-15T15:31:31.772Z,24.98
2023-05-15T15:33:59.089Z,24.86
2023-05-15T15:36:25.992Z,24.75
2023-05-15T15:38:52.974Z,24.66
2023-05-15T15:41:21.427Z,24.59
2023-05-15T15:43:48.354Z,24.61
2023-05-15T15:46:15.506Z,24.66
2023-05-15T15:48:42.453Z,24.60
2023-05-15T15:51:09.259Z,24.41
2023-05-15T15:53:35.987Z,24.23
2023-05-15T15:56:02.864Z,24.08
2023-05-15T15:58:30.140Z,23.86
2023-05-15T16:00:57.934Z,23.78
2023-05-15T16:03:24.916Z,23.90
2023-05-15T16:05:51.878Z,23.90
2023-05-15T16:08:18.848Z,23.81
2023-05-15T16:10:48.263Z,23.63
2023-05-15T16:13:16.051Z,23.52
2023-05-15T16:15:43.001Z,23.48
2023-05-15T16:18:09.960Z,23.60
2023-05-15T16:20:37.256Z,23.82
2023-05-15T16:23:04.046Z,23.98
2023-05-15T16:25:30.774Z,23.93
2023-05-15T16:27:57.528Z,23.93
2023-05-15T16:30:33.870Z,23.99
2023-05-15T16:33:07.464Z,23.83
2023-05-15T16:35:36.780Z,23.66
2023-05-15T16:38:05.277Z,23.70
2023-05-15T16:40:32.194Z,23.66
2023-05-15T16:42:59.264Z,23.47
2023-05-15T16:45:26.314Z,23.24
2023-05-15T16:47:59.117Z,23.15
2023-05-15T16:50:26.181Z,23.16
2023-05-15T16:52:53.144Z,23.21
2023-05-15T16:55:20.236Z,23.20
2023-05-15T16:57:47.319Z,23.17
2023-05-15T17:00:17.040Z,23.12
2023-05-15T17:02:44.385Z,23.07
2023-05-15T17:05:11.903Z,23.08
2023-05-15T17:07:39.235Z,23.09
2023-05-15T17:10:07.813Z,23.16
2023-05-15T17:12:35.421Z,23.19
2023-05-15T17:15:02.954Z,23.12
2023-05-15T17:17:31.763Z,23.06
2023-05-15T17:19:59.336Z,23.04
2023-05-15T17:22:27.257Z,22.96
2023-05-15T17:24:55.060Z,22.98
2023-05-15T17:27:22.043Z,23.03
2023-05-15T17:29:48.998Z,22.99
2023-05-15T17:32:16.800Z,22.98
2023-05-15T17:34:45.014Z,22.95
2023-05-15T17:37:11.958Z,22.87
2023-05-15T17:39:38.764Z,22.80
2023-05-15T17:42:05.746Z,22.84
2023-05-15T17:44:32.504Z,22.89
2023-05-15T17:46:59.943Z,22.81
2023-05-15T17:49:26.753Z,22.70
2023-05-15T17:51:53.957Z,22.61
2023-05-15T17:54:21.060Z,22.55
2023-05-15T17:56:48.348Z,22.47
2023-05-15T17:59:15.096Z,22.41
2023-05-15T18:01:42.143Z,22.38
2023-05-15T18:04:09.352Z,22.34
2023-05-15T18:06:37.889Z,22.27
2023-05-15T18:09:05.458Z,22.19
2023-05-15T18:11:32.586Z,22.12
2023-05-15T18:13:59.667Z,22.05
2023-05-15T18:16:26.785Z,21.97
2023-05-15T18:18:53.823Z,21.86
2023-05-15T18:21:20.749Z,21.74
2023-05-15T18:23:47.517Z,21.61
2023-05-15T18:26:15.691Z,21.50
2023-05-15T18:28:42.528Z,21.48
2023-05-15T18:31:09.467Z,21.45
2023-05-15T18:33:36.372Z,21.52
2023-05-15T18:36:05.261Z,21.55
2023-05-15T18:38:33.512Z,21.56
2023-05-15T18:41:00.295Z,21.57
2023-05-15T18:43:27.058Z,21.57
2023-05-15T18:45:54.577Z,21.57
2023-05-15T18:48:21.327Z,21.55
2023-05-15T18:50:48.211Z,21.50
2023-05-15T18:53:15.182Z,21.48
2023-05-15T18:55:42.008Z,21.51
2023-05-15T18:58:08.992Z,21.54
2023-05-15T19:00:38.827Z,21.56
2023-05-15T19:03:10.516Z,21.54
2023-05-15T19:05:40.142Z,21.51
2023-05-15T19:08:09.315Z,21.49
2023-05-15T19:10:38.264Z,21.45
2023-05-15T19:13:06.543Z,21.46
2023-05-15T19:15:34.807Z,21.46
2023-05-15T19:18:02.394Z,21.32
2023-05-15T19:20:29.542Z,21.14
2023-05-15T19:22:56.303Z,20.97
2023-05-15T19:25:23.470Z,20.88
2023-05-15T19:27:50.182Z,20.79
2023-05-15T19:30:17.414Z,20.64
2023-05-15T19:32:44.509Z,20.51
2023-05-15T19:35:13.549Z,20.35
2023-05-15T19:37:41.106Z,20.26
2023-05-15T19:40:08.699Z,20.17
2023-05-15T19:42:36.195Z,20.04
2023-05-15T19:45:26.173Z,19.91
2023-05-15T19:47:53.210Z,19.83
2023-05-15T19:50:20.426Z,19.84
2023-05-15T19:52:47.598Z,19.77
2023-05-15T19:55:17.068Z,19.72
2023-05-15T19:57:45.053Z,19.65
2023-05-15T20:00:12.540Z,19.68
2023-05-15T20:02:41.338Z,19.72
2023-05-15T20:05:11.612Z,19.83
2023-05-15T20:07:38.370Z,19.89
2023-05-15T20:10:06.071Z,19.93
2023-05-15T20:12:34.550Z,19.88
2023-05-15T20:15:01.338Z,19.82
2023-05-15T20:17:28.191Z,19.79
2023-05-15T20:19:56.960Z,19.70
2023-05-15T20:22:24.633Z,19.56
2023-05-15T20:24:53.100Z,19.49
2023-05-15T20:27:19.763Z,19.42
2023-05-15T20:29:46.469Z,19.38
2023-05-15T20:32:13.829Z,19.36
2023-05-15T20:34:45.861Z,19.35
2023-05-15T20:37:13.593Z,19.32
2023-05-15T20:39:40.363Z,19.32
2023-05-15T20:42:07.256Z,19.30
2023-05-15T20:44:36.413Z,19.33
2023-05-15T20:47:04.013Z,19.37
2023-05-15T20:49:30.743Z,19.40
2023-05-15T20:51:58.597Z,19.46
2023-05-15T20:54:25.823Z,19.51
2023-05-15T20:56:55.044Z,19.59
2023-05-15T20:59:24.388Z,19.55
2023-05-15T21:01:54.405Z,19.45
2023-05-15T21:04:21.301Z,19.35
2023-05-15T21:06:49.078Z,19.29
2023-05-15T21:09:16.949Z,19.23
2023-05-15T21:11:43.715Z,19.10
2023-05-15T21:14:15.688Z,19.01
2023-05-15T21:16:42.498Z,18.98
2023-05-15T21:19:09.369Z,18.94
2023-05-15T21:21:36.346Z,18.92
2023-05-15T21:24:04.841Z,18.91
2023-05-15T21:26:31.627Z,18.88
2023-05-15T21:28:59.365Z,18.82
2023-05-15T21:31:28.054Z,18.79
2023-05-15T21:33:55.023Z,18.72
2023-05-15T21:36:22.229Z,18.66
2023-05-15T21:38:49.056Z,18.64
2023-05-15T21:41:17.140Z,18.59
2023-05-15T21:43:44.927Z,18.55
2023-05-15T21:46:11.674Z,18.54
2023-05-15T21:48:41.198Z,18.53
2023-05-15T21:51:09.213Z,18.50
2023-05-15T21:53:36.359Z,18.48
2023-05-15T21:56:03.787Z,18.51
2023-05-15T21:58:30.993Z,18.51
2023-05-15T22:00:57.934Z,18.49
2023-05-15T22:03:26.597Z,18.48
2023-05-15T22:05:53.632Z,18.40
2023-05-15T22:08:21.474Z,18.37
2023-05-15T22:10:54.432Z,18.33
2023-05-15T22:13:21.178Z,18.30
2023-05-15T22:15:48.026Z,18.29
2023-05-15T22:18:14.851Z,18.30
2023-05-15T22:20:44.540Z,18.24
2023-05-15T22:23:11.378Z,18.23
2023-05-15T22:25:38.100Z,18.22
2023-05-15T22:28:04.952Z,18.24
2023-05-15T22:30:31.974Z,18.26
2023-05-15T22:32:58.943Z,18.24
2023-05-15T22:35:26.089Z,18.22
2023-05-15T22:37:52.914Z,18.19
2023-05-15T22:40:19.705Z,18.11
2023-05-15T22:42:50.334Z,18.03
2023-05-15T22:45:18.567Z,17.97
2023-05-15T22:47:45.919Z,17.90
2023-05-15T22:50:12.846Z,17.82
2023-05-15T22:52:39.669Z,17.78
2023-05-15T22:55:07.374Z,17.75
2023-05-15T22:57:34.291Z,17.69
2023-05-15T23:00:01.165Z,17.62
2023-05-15T23:02:27.977Z,17.55
2023-05-15T23:04:54.677Z,17.50
2023-05-15T23:07:21.489Z,17.44
2023-05-15T23:09:48.191Z,17.36
2023-05-15T23:12:14.967Z,17.33
2023-05-15T23:14:41.669Z,17.27
2023-05-15T23:17:08.390Z,17.28
2023-05-15T23:19:35.068Z,17.25
2023-05-15T23:22:02.534Z,17.24
2023-05-15T23:24:29.416Z,17.22
2023-05-15T23:26:56.086Z,17.20
2023-05-15T23:29:22.779Z,17.16
2023-05-15T23:31:49.909Z,17.13
2023-05-15T23:34:17.238Z,17.11
2023-05-15T23:36:43.963Z,17.08
2023-05-15T23:39:11.758Z,17.06
2023-05-15T23:41:38.563Z,16.99
2023-05-15T23:44:05.152Z,16.97
2023-05-15T23:46:31.980Z,16.92
2023-05-15T23:48:58.725Z,16.87
2023-05-15T23:51:25.551Z,16.83
2023-05-15T23:53:52.314Z,16.81
2023-05-15T23:56:19.019Z,16.77
2023-05-15T23:58:45.669Z,16.73
